sensor_id;sensor_type;location;lat;lon;timestamp;P1;durP1;ratioP1;P2;durP2;ratioP2
75847;SDS011;65750;47.540;19.090;2023-04-25T00:01:45;2.27;;;1.60;;
75847;SDS011;65750;47.540;19.090;2023-04-25T00:04:12;2.37;;;1.50;;
75847;SDS011;65750;47.540;19.090;2023-04-25T00:06:41;2.70;;;1.48;;
75847;SDS011;65750;47.540;19.090;2023-04-25T00:09:08;2.50;;;1.60;;
75847;SDS011;65750;47.540;19.090;2023-04-25T00:11:36;3.00;;;1.75;;
75847;SDS011;65750;47.540;19.090;2023-04-25T00:14:03;2.37;;;1.33;;
75847;SDS011;65750;47.540;19.090;2023-04-25T00:16:32;2.12;;;1.50;;
75847;SDS011;65750;47.540;19.090;2023-04-25T00:19:00;2.78;;;1.60;;
75847;SDS011;65750;47.540;19.090;2023-04-25T00:21:28;2.65;;;1.37;;
75847;SDS011;65750;47.540;19.090;2023-04-25T00:23:58;2.22;;;1.30;;
75847;SDS011;65750;47.540;19.090;2023-04-25T00:26:25;2.67;;;1.70;;
75847;SDS011;65750;47.540;19.090;2023-04-25T00:28:53;2.42;;;1.50;;
75847;SDS011;65750;47.540;19.090;2023-04-25T00:31:21;2.70;;;1.62;;
75847;SDS011;65750;47.540;19.090;2023-04-25T00:33:49;2.42;;;1.52;;
75847;SDS011;65750;47.540;19.090;2023-04-25T00:36:16;2.72;;;1.30;;
75847;SDS011;65750;47.540;19.090;2023-04-25T00:38:43;3.07;;;1.67;;
75847;SDS011;65750;47.540;19.090;2023-04-25T00:41:12;2.10;;;1.50;;
75847;SDS011;65750;47.540;19.090;2023-04-25T00:43:39;2.25;;;1.23;;
75847;SDS011;65750;47.540;19.090;2023-04-25T00:46:06;2.67;;;1.30;;
75847;SDS011;65750;47.540;19.090;2023-04-25T00:48:33;2.20;;;1.42;;
75847;SDS011;65750;47.540;19.090;2023-04-25T00:51:00;2.60;;;1.40;;
75847;SDS011;65750;47.540;19.090;2023-04-25T00:53:28;2.87;;;1.55;;
75847;SDS011;65750;47.540;19.090;2023-04-25T00:55:57;2.15;;;1.30;;
75847;SDS011;65750;47.540;19.090;2023-04-25T00:58:45;2.70;;;1.70;;
75847;SDS011;65750;47.540;19.090;2023-04-25T01:01:12;2.15;;;1.48;;
75847;SDS011;65750;47.540;19.090;2023-04-25T01:03:40;4.13;;;1.70;;
75847;SDS011;65750;47.540;19.090;2023-04-25T01:06:07;2.47;;;1.50;;
75847;SDS011;65750;47.540;19.090;2023-04-25T01:08:37;2.45;;;1.40;;
75847;SDS011;65750;47.540;19.090;2023-04-25T01:11:04;2.10;;;1.40;;
75847;SDS011;65750;47.540;19.090;2023-04-25T01:13:32;2.20;;;1.42;;
75847;SDS011;65750;47.540;19.090;2023-04-25T01:16:01;2.33;;;1.40;;
75847;SDS011;65750;47.540;19.090;2023-04-25T01:18:29;2.30;;;1.70;;
75847;SDS011;65750;47.540;19.090;2023-04-25T01:20:56;2.30;;;1.37;;
75847;SDS011;65750;47.540;19.090;2023-04-25T01:23:29;2.33;;;1.30;;
75847;SDS011;65750;47.540;19.090;2023-04-25T01:25:58;2.20;;;1.30;;
75847;SDS011;65750;47.540;19.090;2023-04-25T01:28:26;2.20;;;1.50;;
75847;SDS011;65750;47.540;19.090;2023-04-25T01:30:53;2.20;;;1.50;;
75847;SDS011;65750;47.540;19.090;2023-04-25T01:33:21;2.40;;;1.40;;
75847;SDS011;65750;47.540;19.090;2023-04-25T01:35:48;2.17;;;1.40;;
75847;SDS011;65750;47.540;19.090;2023-04-25T01:38:20;2.30;;;1.48;;
75847;SDS011;65750;47.540;19.090;2023-04-25T01:40:47;2.30;;;1.57;;
75847;SDS011;65750;47.540;19.090;2023-04-25T01:43:18;2.58;;;1.70;;
75847;SDS011;65750;47.540;19.090;2023-04-25T01:45:45;1.85;;;1.35;;
75847;SDS011;65750;47.540;19.090;2023-04-25T01:48:12;2.10;;;1.50;;
75847;SDS011;65750;47.540;19.090;2023-04-25T01:50:42;2.10;;;1.33;;
75847;SDS011;65750;47.540;19.090;2023-04-25T01:53:10;2.10;;;1.37;;
75847;SDS011;65750;47.540;19.090;2023-04-25T01:55:42;2.53;;;1.65;;
75847;SDS011;65750;47.540;19.090;2023-04-25T01:58:10;2.20;;;1.50;;
75847;SDS011;65750;47.540;19.090;2023-04-25T02:00:39;2.90;;;1.20;;
75847;SDS011;65750;47.540;19.090;2023-04-25T02:03:07;2.42;;;1.50;;
75847;SDS011;65750;47.540;19.090;2023-04-25T02:05:34;2.50;;;1.37;;
75847;SDS011;65750;47.540;19.090;2023-04-25T02:08:04;2.37;;;1.42;;
75847;SDS011;65750;47.540;19.090;2023-04-25T02:10:31;2.08;;;1.45;;
75847;SDS011;65750;47.540;19.090;2023-04-25T02:13:01;2.15;;;1.52;;
75847;SDS011;65750;47.540;19.090;2023-04-25T02:15:32;2.70;;;1.50;;
75847;SDS011;65750;47.540;19.090;2023-04-25T02:17:59;2.33;;;1.47;;
75847;SDS011;65750;47.540;19.090;2023-04-25T02:20:29;2.00;;;1.33;;
75847;SDS011;65750;47.540;19.090;2023-04-25T02:22:57;1.90;;;1.30;;
75847;SDS011;65750;47.540;19.090;2023-04-25T02:25:24;2.30;;;1.55;;
75847;SDS011;65750;47.540;19.090;2023-04-25T02:27:52;2.28;;;1.50;;
75847;SDS011;65750;47.540;19.090;2023-04-25T02:30:21;1.90;;;1.30;;
75847;SDS011;65750;47.540;19.090;2023-04-25T02:32:48;1.83;;;1.23;;
75847;SDS011;65750;47.540;19.090;2023-04-25T02:35:16;1.90;;;1.12;;
75847;SDS011;65750;47.540;19.090;2023-04-25T02:37:43;2.10;;;1.33;;
75847;SDS011;65750;47.540;19.090;2023-04-25T02:40:11;2.17;;;1.50;;
75847;SDS011;65750;47.540;19.090;2023-04-25T02:42:39;2.20;;;1.50;;
75847;SDS011;65750;47.540;19.090;2023-04-25T02:45:06;2.65;;;1.45;;
75847;SDS011;65750;47.540;19.090;2023-04-25T02:47:35;2.03;;;1.30;;
75847;SDS011;65750;47.540;19.090;2023-04-25T02:50:02;2.30;;;1.45;;
75847;SDS011;65750;47.540;19.090;2023-04-25T02:52:30;3.47;;;1.60;;
75847;SDS011;65750;47.540;19.090;2023-04-25T02:54:57;1.97;;;1.40;;
75847;SDS011;65750;47.540;19.090;2023-04-25T02:57:25;2.47;;;1.58;;
75847;SDS011;65750;47.540;19.090;2023-04-25T02:59:52;3.28;;;1.60;;
75847;SDS011;65750;47.540;19.090;2023-04-25T03:02:19;2.12;;;1.30;;
75847;SDS011;65750;47.540;19.090;2023-04-25T03:04:47;2.33;;;1.48;;
75847;SDS011;65750;47.540;19.090;2023-04-25T03:07:15;2.47;;;1.73;;
75847;SDS011;65750;47.540;19.090;2023-04-25T03:09:42;2.00;;;1.20;;
75847;SDS011;65750;47.540;19.090;2023-04-25T03:12:09;2.30;;;1.55;;
75847;SDS011;65750;47.540;19.090;2023-04-25T03:14:36;2.28;;;1.40;;
75847;SDS011;65750;47.540;19.090;2023-04-25T03:17:03;2.12;;;1.37;;
75847;SDS011;65750;47.540;19.090;2023-04-25T03:19:30;2.53;;;1.70;;
75847;SDS011;65750;47.540;19.090;2023-04-25T03:21:59;2.30;;;1.67;;
75847;SDS011;65750;47.540;19.090;2023-04-25T03:24:26;2.08;;;1.45;;
75847;SDS011;65750;47.540;19.090;2023-04-25T03:26:53;2.33;;;1.50;;
75847;SDS011;65750;47.540;19.090;2023-04-25T03:29:21;2.40;;;1.50;;
75847;SDS011;65750;47.540;19.090;2023-04-25T03:31:50;2.53;;;1.53;;
75847;SDS011;65750;47.540;19.090;2023-04-25T03:34:18;2.20;;;1.60;;
75847;SDS011;65750;47.540;19.090;2023-04-25T03:36:47;2.17;;;1.45;;
75847;SDS011;65750;47.540;19.090;2023-04-25T03:39:15;1.95;;;1.37;;
75847;SDS011;65750;47.540;19.090;2023-04-25T03:41:44;2.00;;;1.30;;
75847;SDS011;65750;47.540;19.090;2023-04-25T03:44:11;2.00;;;1.40;;
75847;SDS011;65750;47.540;19.090;2023-04-25T03:46:39;2.30;;;1.50;;
75847;SDS011;65750;47.540;19.090;2023-04-25T03:49:06;2.10;;;1.35;;
75847;SDS011;65750;47.540;19.090;2023-04-25T03:51:34;2.03;;;1.40;;
75847;SDS011;65750;47.540;19.090;2023-04-25T03:54:01;2.60;;;1.35;;
75847;SDS011;65750;47.540;19.090;2023-04-25T03:56:34;2.77;;;1.70;;
75847;SDS011;65750;47.540;19.090;2023-04-25T03:59:01;2.10;;;1.40;;
75847;SDS011;65750;47.540;19.090;2023-04-25T04:01:29;2.35;;;1.50;;
75847;SDS011;65750;47.540;19.090;2023-04-25T04:03:56;2.20;;;1.52;;
75847;SDS011;65750;47.540;19.090;2023-04-25T04:06:24;4.12;;;1.65;;
75847;SDS011;65750;47.540;19.090;2023-04-25T04:08:51;2.30;;;1.33;;
75847;SDS011;65750;47.540;19.090;2023-04-25T04:11:19;2.30;;;1.50;;
75847;SDS011;65750;47.540;19.090;2023-04-25T04:13:48;2.30;;;1.50;;
75847;SDS011;65750;47.540;19.090;2023-04-25T04:16:15;2.53;;;1.67;;
75847;SDS011;65750;47.540;19.090;2023-04-25T04:18:43;2.25;;;1.40;;
75847;SDS011;65750;47.540;19.090;2023-04-25T04:21:10;2.30;;;1.40;;
75847;SDS011;65750;47.540;19.090;2023-04-25T04:23:38;2.30;;;1.50;;
75847;SDS011;65750;47.540;19.090;2023-04-25T04:26:06;2.67;;;1.60;;
75847;SDS011;65750;47.540;19.090;2023-04-25T04:28:34;2.50;;;1.70;;
75847;SDS011;65750;47.540;19.090;2023-04-25T04:31:04;2.47;;;1.50;;
75847;SDS011;65750;47.540;19.090;2023-04-25T04:33:31;3.13;;;1.73;;
75847;SDS011;65750;47.540;19.090;2023-04-25T04:35:58;2.50;;;1.75;;
75847;SDS011;65750;47.540;19.090;2023-04-25T04:38:26;2.35;;;1.40;;
75847;SDS011;65750;47.540;19.090;2023-04-25T04:40:54;2.50;;;1.80;;
75847;SDS011;65750;47.540;19.090;2023-04-25T04:43:21;2.33;;;1.60;;
75847;SDS011;65750;47.540;19.090;2023-04-25T04:45:49;2.20;;;1.53;;
75847;SDS011;65750;47.540;19.090;2023-04-25T04:48:18;2.55;;;1.58;;
75847;SDS011;65750;47.540;19.090;2023-04-25T04:50:46;2.40;;;1.70;;
75847;SDS011;65750;47.540;19.090;2023-04-25T04:53:14;2.55;;;1.70;;
75847;SDS011;65750;47.540;19.090;2023-04-25T04:55:42;3.33;;;1.73;;
75847;SDS011;65750;47.540;19.090;2023-04-25T04:58:09;2.80;;;2.00;;
75847;SDS011;65750;47.540;19.090;2023-04-25T05:00:36;2.40;;;1.60;;
75847;SDS011;65750;47.540;19.090;2023-04-25T05:03:05;2.20;;;1.52;;
75847;SDS011;65750;47.540;19.090;2023-04-25T05:05:34;2.40;;;1.90;;
75847;SDS011;65750;47.540;19.090;2023-04-25T05:08:06;2.37;;;1.50;;
75847;SDS011;65750;47.540;19.090;2023-04-25T05:10:33;3.40;;;1.77;;
75847;SDS011;65750;47.540;19.090;2023-04-25T05:13:01;2.42;;;1.90;;
75847;SDS011;65750;47.540;19.090;2023-04-25T05:15:28;2.42;;;1.48;;
75847;SDS011;65750;47.540;19.090;2023-04-25T05:17:56;2.25;;;1.55;;
75847;SDS011;65750;47.540;19.090;2023-04-25T05:20:24;2.60;;;1.80;;
75847;SDS011;65750;47.540;19.090;2023-04-25T05:22:53;3.17;;;1.63;;
75847;SDS011;65750;47.540;19.090;2023-04-25T05:25:20;2.83;;;1.92;;
75847;SDS011;65750;47.540;19.090;2023-04-25T05:27:47;2.90;;;1.92;;
75847;SDS011;65750;47.540;19.090;2023-04-25T05:30:17;2.90;;;1.50;;
75847;SDS011;65750;47.540;19.090;2023-04-25T05:32:44;2.87;;;2.00;;
75847;SDS011;65750;47.540;19.090;2023-04-25T05:35:12;2.80;;;1.90;;
75847;SDS011;65750;47.540;19.090;2023-04-25T05:37:40;2.53;;;1.92;;
75847;SDS011;65750;47.540;19.090;2023-04-25T05:40:09;3.45;;;2.10;;
75847;SDS011;65750;47.540;19.090;2023-04-25T05:42:38;3.37;;;2.25;;
75847;SDS011;65750;47.540;19.090;2023-04-25T05:45:06;4.28;;;1.83;;
75847;SDS011;65750;47.540;19.090;2023-04-25T05:47:33;3.10;;;2.00;;
75847;SDS011;65750;47.540;19.090;2023-04-25T05:50:01;4.85;;;2.20;;
75847;SDS011;65750;47.540;19.090;2023-04-25T05:52:29;3.40;;;1.90;;
75847;SDS011;65750;47.540;19.090;2023-04-25T05:54:56;3.25;;;1.90;;
75847;SDS011;65750;47.540;19.090;2023-04-25T05:57:25;4.57;;;2.15;;
75847;SDS011;65750;47.540;19.090;2023-04-25T05:59:54;5.40;;;2.10;;
75847;SDS011;65750;47.540;19.090;2023-04-25T06:02:21;5.97;;;2.28;;
75847;SDS011;65750;47.540;19.090;2023-04-25T06:04:49;4.87;;;1.90;;
75847;SDS011;65750;47.540;19.090;2023-04-25T06:07:17;4.47;;;2.20;;
75847;SDS011;65750;47.540;19.090;2023-04-25T06:09:44;3.37;;;1.90;;
75847;SDS011;65750;47.540;19.090;2023-04-25T06:12:11;4.73;;;2.00;;
75847;SDS011;65750;47.540;19.090;2023-04-25T06:14:40;4.75;;;2.33;;
75847;SDS011;65750;47.540;19.090;2023-04-25T06:17:07;9.13;;;3.30;;
75847;SDS011;65750;47.540;19.090;2023-04-25T06:19:35;5.65;;;2.97;;
75847;SDS011;65750;47.540;19.090;2023-04-25T06:22:02;8.32;;;2.90;;
75847;SDS011;65750;47.540;19.090;2023-04-25T06:24:30;6.30;;;2.80;;
75847;SDS011;65750;47.540;19.090;2023-04-25T06:26:58;12.25;;;2.62;;
75847;SDS011;65750;47.540;19.090;2023-04-25T06:29:25;5.70;;;2.30;;
75847;SDS011;65750;47.540;19.090;2023-04-25T06:31:54;5.07;;;2.55;;
75847;SDS011;65750;47.540;19.090;2023-04-25T06:34:23;4.22;;;2.20;;
75847;SDS011;65750;47.540;19.090;2023-04-25T06:36:50;5.30;;;2.10;;
75847;SDS011;65750;47.540;19.090;2023-04-25T06:39:17;6.03;;;2.20;;
75847;SDS011;65750;47.540;19.090;2023-04-25T06:41:45;5.87;;;2.40;;
75847;SDS011;65750;47.540;19.090;2023-04-25T06:44:13;5.20;;;2.70;;
75847;SDS011;65750;47.540;19.090;2023-04-25T06:46:42;8.38;;;2.67;;
75847;SDS011;65750;47.540;19.090;2023-04-25T06:49:13;13.10;;;3.67;;
75847;SDS011;65750;47.540;19.090;2023-04-25T06:51:41;76.95;;;15.38;;
75847;SDS011;65750;47.540;19.090;2023-04-25T06:54:08;81.28;;;17.25;;
75847;SDS011;65750;47.540;19.090;2023-04-25T06:56:36;75.00;;;15.95;;
75847;SDS011;65750;47.540;19.090;2023-04-25T06:59:04;53.42;;;12.35;;
75847;SDS011;65750;47.540;19.090;2023-04-25T07:01:31;63.80;;;15.23;;
75847;SDS011;65750;47.540;19.090;2023-04-25T07:03:59;63.42;;;14.27;;
75847;SDS011;65750;47.540;19.090;2023-04-25T07:06:28;58.05;;;12.98;;
75847;SDS011;65750;47.540;19.090;2023-04-25T07:08:56;59.20;;;13.73;;
75847;SDS011;65750;47.540;19.090;2023-04-25T07:11:24;60.35;;;13.18;;
75847;SDS011;65750;47.540;19.090;2023-04-25T07:13:51;60.43;;;12.63;;
75847;SDS011;65750;47.540;19.090;2023-04-25T07:16:18;50.67;;;12.32;;
75847;SDS011;65750;47.540;19.090;2023-04-25T07:18:45;50.58;;;11.68;;
75847;SDS011;65750;47.540;19.090;2023-04-25T07:21:13;47.35;;;11.60;;
75847;SDS011;65750;47.540;19.090;2023-04-25T07:23:42;48.38;;;10.88;;
75847;SDS011;65750;47.540;19.090;2023-04-25T07:26:10;40.30;;;11.13;;
75847;SDS011;65750;47.540;19.090;2023-04-25T07:28:39;42.72;;;11.48;;
75847;SDS011;65750;47.540;19.090;2023-04-25T07:31:07;44.72;;;11.18;;
75847;SDS011;65750;47.540;19.090;2023-04-25T07:33:34;43.87;;;10.98;;
75847;SDS011;65750;47.540;19.090;2023-04-25T07:36:01;36.88;;;10.43;;
75847;SDS011;65750;47.540;19.090;2023-04-25T07:38:29;32.47;;;9.20;;
75847;SDS011;65750;47.540;19.090;2023-04-25T07:40:57;33.45;;;9.75;;
75847;SDS011;65750;47.540;19.090;2023-04-25T07:43:25;32.05;;;10.02;;
75847;SDS011;65750;47.540;19.090;2023-04-25T07:45:52;34.13;;;10.57;;
75847;SDS011;65750;47.540;19.090;2023-04-25T07:48:20;32.63;;;9.25;;
75847;SDS011;65750;47.540;19.090;2023-04-25T07:50:47;35.20;;;9.13;;
75847;SDS011;65750;47.540;19.090;2023-04-25T07:53:14;32.17;;;9.07;;
75847;SDS011;65750;47.540;19.090;2023-04-25T07:55:42;29.10;;;9.18;;
75847;SDS011;65750;47.540;19.090;2023-04-25T07:58:12;31.05;;;8.90;;
75847;SDS011;65750;47.540;19.090;2023-04-25T08:00:41;24.95;;;7.62;;
75847;SDS011;65750;47.540;19.090;2023-04-25T08:03:11;27.60;;;8.17;;
75847;SDS011;65750;47.540;19.090;2023-04-25T08:05:38;29.50;;;8.45;;
75847;SDS011;65750;47.540;19.090;2023-04-25T08:08:05;25.00;;;7.72;;
75847;SDS011;65750;47.540;19.090;2023-04-25T08:10:33;23.02;;;7.82;;
75847;SDS011;65750;47.540;19.090;2023-04-25T08:13:01;28.33;;;7.37;;
75847;SDS011;65750;47.540;19.090;2023-04-25T08:15:31;24.00;;;7.80;;
75847;SDS011;65750;47.540;19.090;2023-04-25T08:17:59;27.87;;;8.00;;
75847;SDS011;65750;47.540;19.090;2023-04-25T08:20:26;28.15;;;8.10;;
75847;SDS011;65750;47.540;19.090;2023-04-25T08:22:54;24.35;;;7.20;;
75847;SDS011;65750;47.540;19.090;2023-04-25T08:25:22;19.80;;;6.80;;
75847;SDS011;65750;47.540;19.090;2023-04-25T08:27:50;17.07;;;6.53;;
75847;SDS011;65750;47.540;19.090;2023-04-25T08:30:18;19.48;;;6.65;;
75847;SDS011;65750;47.540;19.090;2023-04-25T08:32:48;20.52;;;7.30;;
75847;SDS011;65750;47.540;19.090;2023-04-25T08:35:15;18.58;;;6.45;;
75847;SDS011;65750;47.540;19.090;2023-04-25T08:37:43;16.15;;;6.03;;
75847;SDS011;65750;47.540;19.090;2023-04-25T08:40:11;18.27;;;6.27;;
75847;SDS011;65750;47.540;19.090;2023-04-25T08:42:41;14.68;;;5.07;;
75847;SDS011;65750;47.540;19.090;2023-04-25T08:45:08;15.02;;;5.50;;
75847;SDS011;65750;47.540;19.090;2023-04-25T08:47:37;16.62;;;5.12;;
75847;SDS011;65750;47.540;19.090;2023-04-25T08:50:06;13.02;;;5.72;;
75847;SDS011;65750;47.540;19.090;2023-04-25T08:52:36;14.73;;;5.37;;
75847;SDS011;65750;47.540;19.090;2023-04-25T08:55:06;12.65;;;4.95;;
75847;SDS011;65750;47.540;19.090;2023-04-25T08:57:37;13.43;;;5.10;;
75847;SDS011;65750;47.540;19.090;2023-04-25T09:00:05;16.25;;;5.30;;
75847;SDS011;65750;47.540;19.090;2023-04-25T09:02:34;14.57;;;5.25;;
75847;SDS011;65750;47.540;19.090;2023-04-25T09:05:02;13.23;;;4.40;;
75847;SDS011;65750;47.540;19.090;2023-04-25T09:07:31;14.65;;;4.70;;
75847;SDS011;65750;47.540;19.090;2023-04-25T09:09:58;20.23;;;5.18;;
75847;SDS011;65750;47.540;19.090;2023-04-25T09:12:28;12.63;;;4.40;;
75847;SDS011;65750;47.540;19.090;2023-04-25T09:15:06;11.32;;;4.55;;
75847;SDS011;65750;47.540;19.090;2023-04-25T09:17:34;8.63;;;3.93;;
75847;SDS011;65750;47.540;19.090;2023-04-25T09:20:06;13.30;;;4.32;;
75847;SDS011;65750;47.540;19.090;2023-04-25T09:22:36;12.63;;;4.68;;
75847;SDS011;65750;47.540;19.090;2023-04-25T09:25:07;11.80;;;4.03;;
75847;SDS011;65750;47.540;19.090;2023-04-25T09:27:35;8.48;;;3.87;;
75847;SDS011;65750;47.540;19.090;2023-04-25T09:30:03;11.17;;;4.33;;
75847;SDS011;65750;47.540;19.090;2023-04-25T09:32:32;9.95;;;3.65;;
75847;SDS011;65750;47.540;19.090;2023-04-25T09:34:59;12.00;;;4.30;;
75847;SDS011;65750;47.540;19.090;2023-04-25T09:37:27;10.68;;;3.95;;
75847;SDS011;65750;47.540;19.090;2023-04-25T09:39:59;11.15;;;4.12;;
75847;SDS011;65750;47.540;19.090;2023-04-25T09:42:31;9.47;;;3.77;;
75847;SDS011;65750;47.540;19.090;2023-04-25T09:45:00;8.95;;;3.60;;
75847;SDS011;65750;47.540;19.090;2023-04-25T09:47:29;7.95;;;3.55;;
75847;SDS011;65750;47.540;19.090;2023-04-25T09:49:59;9.18;;;3.55;;
75847;SDS011;65750;47.540;19.090;2023-04-25T09:52:26;7.35;;;3.37;;
75847;SDS011;65750;47.540;19.090;2023-04-25T09:54:53;8.33;;;3.20;;
75847;SDS011;65750;47.540;19.090;2023-04-25T09:57:24;9.20;;;3.70;;
75847;SDS011;65750;47.540;19.090;2023-04-25T09:59:52;8.77;;;3.60;;
75847;SDS011;65750;47.540;19.090;2023-04-25T10:02:21;7.18;;;3.30;;
75847;SDS011;65750;47.540;19.090;2023-04-25T10:04:50;9.35;;;3.50;;
75847;SDS011;65750;47.540;19.090;2023-04-25T10:07:20;8.27;;;3.60;;
75847;SDS011;65750;47.540;19.090;2023-04-25T10:09:54;7.32;;;3.15;;
75847;SDS011;65750;47.540;19.090;2023-04-25T10:12:22;8.52;;;3.35;;
75847;SDS011;65750;47.540;19.090;2023-04-25T10:14:51;8.02;;;2.95;;
75847;SDS011;65750;47.540;19.090;2023-04-25T10:17:19;7.57;;;3.67;;
75847;SDS011;65750;47.540;19.090;2023-04-25T10:19:47;8.97;;;3.70;;
75847;SDS011;65750;47.540;19.090;2023-04-25T10:22:23;9.35;;;3.80;;
75847;SDS011;65750;47.540;19.090;2023-04-25T10:24:55;8.95;;;4.47;;
75847;SDS011;65750;47.540;19.090;2023-04-25T10:27:25;7.90;;;4.30;;
75847;SDS011;65750;47.540;19.090;2023-04-25T10:30:00;8.18;;;4.03;;
75847;SDS011;65750;47.540;19.090;2023-04-25T10:32:30;9.57;;;4.50;;
75847;SDS011;65750;47.540;19.090;2023-04-25T10:34:57;8.15;;;4.03;;
75847;SDS011;65750;47.540;19.090;2023-04-25T10:37:31;9.10;;;4.22;;
75847;SDS011;65750;47.540;19.090;2023-04-25T10:39:58;9.32;;;4.57;;
75847;SDS011;65750;47.540;19.090;2023-04-25T10:42:36;7.00;;;3.80;;
75847;SDS011;65750;47.540;19.090;2023-04-25T10:45:04;8.43;;;3.83;;
75847;SDS011;65750;47.540;19.090;2023-04-25T10:47:35;7.15;;;3.85;;
75847;SDS011;65750;47.540;19.090;2023-04-25T10:50:07;7.03;;;3.50;;
75847;SDS011;65750;47.540;19.090;2023-04-25T10:52:35;8.13;;;4.00;;
75847;SDS011;65750;47.540;19.090;2023-04-25T10:55:06;6.40;;;3.50;;
75847;SDS011;65750;47.540;19.090;2023-04-25T10:57:38;5.93;;;3.43;;
75847;SDS011;65750;47.540;19.090;2023-04-25T11:00:08;6.15;;;3.25;;
75847;SDS011;65750;47.540;19.090;2023-04-25T11:02:40;6.60;;;3.70;;
75847;SDS011;65750;47.540;19.090;2023-04-25T11:05:08;6.30;;;3.30;;
75847;SDS011;65750;47.540;19.090;2023-04-25T11:07:39;6.28;;;3.33;;
75847;SDS011;65750;47.540;19.090;2023-04-25T11:10:12;11.97;;;3.20;;
75847;SDS011;65750;47.540;19.090;2023-04-25T11:12:41;7.45;;;2.67;;
75847;SDS011;65750;47.540;19.090;2023-04-25T11:15:09;19.90;;;13.95;;
75847;SDS011;65750;47.540;19.090;2023-04-25T11:17:36;361.85;;;296.00;;
75847;SDS011;65750;47.540;19.090;2023-04-25T11:20:06;263.40;;;227.55;;
75847;SDS011;65750;47.540;19.090;2023-04-25T11:22:37;206.07;;;171.83;;
75847;SDS011;65750;47.540;19.090;2023-04-25T11:25:06;183.50;;;142.60;;
75847;SDS011;65750;47.540;19.090;2023-04-25T11:27:33;161.18;;;130.93;;
75847;SDS011;65750;47.540;19.090;2023-04-25T11:30:13;148.87;;;122.90;;
75847;SDS011;65750;47.540;19.090;2023-04-25T11:32:42;135.63;;;114.93;;
75847;SDS011;65750;47.540;19.090;2023-04-25T11:35:09;119.03;;;98.57;;
75847;SDS011;65750;47.540;19.090;2023-04-25T11:37:38;109.25;;;87.47;;
75847;SDS011;65750;47.540;19.090;2023-04-25T11:40:06;94.05;;;74.85;;
75847;SDS011;65750;47.540;19.090;2023-04-25T11:42:36;73.70;;;61.35;;
75847;SDS011;65750;47.540;19.090;2023-04-25T11:45:04;68.47;;;54.13;;
75847;SDS011;65750;47.540;19.090;2023-04-25T11:47:33;62.03;;;47.83;;
75847;SDS011;65750;47.540;19.090;2023-04-25T11:50:01;53.15;;;41.53;;
75847;SDS011;65750;47.540;19.090;2023-04-25T11:52:35;44.97;;;35.63;;
75847;SDS011;65750;47.540;19.090;2023-04-25T11:55:04;36.70;;;29.45;;
75847;SDS011;65750;47.540;19.090;2023-04-25T11:57:32;30.80;;;24.85;;
75847;SDS011;65750;47.540;19.090;2023-04-25T12:00:07;27.90;;;23.20;;
75847;SDS011;65750;47.540;19.090;2023-04-25T12:02:41;30.95;;;22.62;;
75847;SDS011;65750;47.540;19.090;2023-04-25T12:05:09;26.52;;;18.95;;
75847;SDS011;65750;47.540;19.090;2023-04-25T12:07:36;21.33;;;15.70;;
75847;SDS011;65750;47.540;19.090;2023-04-25T12:10:04;37.40;;;17.35;;
75847;SDS011;65750;47.540;19.090;2023-04-25T12:12:33;39.93;;;12.70;;
75847;SDS011;65750;47.540;19.090;2023-04-25T12:15:10;28.92;;;13.23;;
75847;SDS011;65750;47.540;19.090;2023-04-25T12:17:42;22.27;;;11.12;;
75847;SDS011;65750;47.540;19.090;2023-04-25T12:20:12;20.80;;;10.57;;
75847;SDS011;65750;47.540;19.090;2023-04-25T12:22:40;21.83;;;10.15;;
75847;SDS011;65750;47.540;19.090;2023-04-25T12:25:10;43.93;;;13.40;;
75847;SDS011;65750;47.540;19.090;2023-04-25T12:27:37;44.17;;;14.30;;
75847;SDS011;65750;47.540;19.090;2023-04-25T12:30:06;44.42;;;13.48;;
75847;SDS011;65750;47.540;19.090;2023-04-25T12:32:35;38.10;;;12.10;;
75847;SDS011;65750;47.540;19.090;2023-04-25T12:35:04;41.92;;;13.10;;
75847;SDS011;65750;47.540;19.090;2023-04-25T12:37:32;39.33;;;13.10;;
75847;SDS011;65750;47.540;19.090;2023-04-25T12:39:59;36.80;;;12.65;;
75847;SDS011;65750;47.540;19.090;2023-04-25T12:42:26;31.52;;;11.60;;
75847;SDS011;65750;47.540;19.090;2023-04-25T12:44:54;31.73;;;12.30;;
75847;SDS011;65750;47.540;19.090;2023-04-25T12:47:21;32.65;;;10.95;;
75847;SDS011;65750;47.540;19.090;2023-04-25T12:49:48;36.27;;;11.30;;
75847;SDS011;65750;47.540;19.090;2023-04-25T12:52:17;34.45;;;10.50;;
75847;SDS011;65750;47.540;19.090;2023-04-25T12:54:44;36.42;;;10.93;;
75847;SDS011;65750;47.540;19.090;2023-04-25T12:57:11;30.12;;;10.73;;
75847;SDS011;65750;47.540;19.090;2023-04-25T12:59:38;28.00;;;9.50;;
75847;SDS011;65750;47.540;19.090;2023-04-25T13:02:05;27.53;;;9.73;;
75847;SDS011;65750;47.540;19.090;2023-04-25T13:04:32;28.87;;;9.20;;
75847;SDS011;65750;47.540;19.090;2023-04-25T13:07:00;25.73;;;9.00;;
75847;SDS011;65750;47.540;19.090;2023-04-25T13:09:28;25.83;;;8.93;;
75847;SDS011;65750;47.540;19.090;2023-04-25T13:11:55;31.35;;;9.13;;
75847;SDS011;65750;47.540;19.090;2023-04-25T13:14:23;24.83;;;8.50;;
75847;SDS011;65750;47.540;19.090;2023-04-25T13:16:50;23.90;;;8.38;;
75847;SDS011;65750;47.540;19.090;2023-04-25T13:19:17;25.70;;;7.95;;
75847;SDS011;65750;47.540;19.090;2023-04-25T13:21:44;25.67;;;8.10;;
75847;SDS011;65750;47.540;19.090;2023-04-25T13:24:11;25.83;;;7.45;;
75847;SDS011;65750;47.540;19.090;2023-04-25T13:26:40;21.90;;;7.00;;
75847;SDS011;65750;47.540;19.090;2023-04-25T13:29:07;27.80;;;7.68;;
75847;SDS011;65750;47.540;19.090;2023-04-25T13:31:34;18.55;;;6.50;;
75847;SDS011;65750;47.540;19.090;2023-04-25T13:34:01;21.45;;;7.07;;
75847;SDS011;65750;47.540;19.090;2023-04-25T13:36:29;19.40;;;7.12;;
75847;SDS011;65750;47.540;19.090;2023-04-25T13:38:57;15.57;;;6.03;;
75847;SDS011;65750;47.540;19.090;2023-04-25T13:41:24;19.87;;;6.15;;
75847;SDS011;65750;47.540;19.090;2023-04-25T13:43:53;19.92;;;6.53;;
75847;SDS011;65750;47.540;19.090;2023-04-25T13:46:20;17.52;;;6.35;;
75847;SDS011;65750;47.540;19.090;2023-04-25T13:48:48;21.02;;;6.65;;
75847;SDS011;65750;47.540;19.090;2023-04-25T13:51:16;16.23;;;5.70;;
75847;SDS011;65750;47.540;19.090;2023-04-25T13:53:43;14.82;;;5.57;;
75847;SDS011;65750;47.540;19.090;2023-04-25T13:56:11;17.77;;;5.57;;
75847;SDS011;65750;47.540;19.090;2023-04-25T13:58:38;19.15;;;5.55;;
75847;SDS011;65750;47.540;19.090;2023-04-25T14:01:07;17.50;;;5.30;;
75847;SDS011;65750;47.540;19.090;2023-04-25T14:03:34;15.47;;;5.10;;
75847;SDS011;65750;47.540;19.090;2023-04-25T14:06:01;17.12;;;5.68;;
75847;SDS011;65750;47.540;19.090;2023-04-25T14:08:29;13.40;;;5.22;;
75847;SDS011;65750;47.540;19.090;2023-04-25T14:10:57;13.50;;;5.35;;
75847;SDS011;65750;47.540;19.090;2023-04-25T14:13:24;11.70;;;4.90;;
75847;SDS011;65750;47.540;19.090;2023-04-25T14:15:51;12.27;;;5.30;;
75847;SDS011;65750;47.540;19.090;2023-04-25T14:18:19;14.63;;;4.80;;
75847;SDS011;65750;47.540;19.090;2023-04-25T14:20:46;13.07;;;4.78;;
75847;SDS011;65750;47.540;19.090;2023-04-25T14:23:14;14.73;;;5.18;;
75847;SDS011;65750;47.540;19.090;2023-04-25T14:25:43;11.77;;;4.50;;
75847;SDS011;65750;47.540;19.090;2023-04-25T14:28:10;11.73;;;4.70;;
75847;SDS011;65750;47.540;19.090;2023-04-25T14:30:37;13.60;;;4.78;;
75847;SDS011;65750;47.540;19.090;2023-04-25T14:33:04;11.75;;;4.57;;